createdAt,value
2022-11-07T00:00:32.904Z,9.661239
2022-11-07T00:01:32.931Z,9.661248
2022-11-07T00:02:33.088Z,9.661230
2022-11-07T00:03:32.901Z,9.661302
2022-11-07T00:04:33.075Z,9.661283
2022-11-07T00:05:32.903Z,9.661245
2022-11-07T00:06:32.879Z,9.661329
2022-11-07T00:07:32.879Z,9.661492
2022-11-07T00:08:32.877Z,9.661360
2022-11-07T00:09:32.919Z,9.661442
2022-11-07T00:10:32.890Z,9.661288
2022-11-07T00:11:32.878Z,9.661444
2022-11-07T00:12:32.909Z,9.661569
2022-11-07T00:13:32.912Z,9.661492
2022-11-07T00:14:32.857Z,9.661573
2022-11-07T00:15:32.961Z,9.661608
2022-11-07T00:16:32.828Z,9.661605
2022-11-07T00:17:32.815Z,9.661555
2022-11-07T00:18:32.850Z,9.661556
2022-11-07T00:19:32.819Z,9.661510
2022-11-07T00:20:33.824Z,9.661472
2022-11-07T00:21:32.838Z,9.661408
2022-11-07T00:22:32.819Z,9.661201
2022-11-07T00:23:32.808Z,9.661259
2022-11-07T00:24:32.777Z,9.661376
2022-11-07T00:25:32.817Z,9.661367
2022-11-07T00:26:32.874Z,9.661355
2022-11-07T00:27:32.878Z,9.661395
2022-11-07T00:28:32.775Z,9.661579
2022-11-07T00:29:32.806Z,9.661467
2022-11-07T00:30:32.745Z,9.661580
2022-11-07T00:31:32.774Z,9.661559
2022-11-07T00:32:32.739Z,9.661563
2022-11-07T00:33:32.732Z,9.661441
2022-11-07T00:34:32.743Z,9.661378
2022-11-07T00:35:32.854Z,9.661534
2022-11-07T00:36:32.722Z,9.661478
2022-11-07T00:37:32.836Z,9.661438
2022-11-07T00:38:32.862Z,9.661486
2022-11-07T00:39:32.718Z,9.661429
2022-11-07T00:40:32.700Z,9.661493
2022-11-07T00:41:32.699Z,9.661512
2022-11-07T00:42:32.728Z,9.661572
2022-11-07T00:43:32.749Z,9.661470
2022-11-07T00:44:32.666Z,9.661467
2022-11-07T00:45:32.660Z,9.661467
2022-11-07T00:46:32.753Z,9.661430
2022-11-07T00:47:32.648Z,9.661510
2022-11-07T00:48:32.678Z,9.661509
2022-11-07T00:49:32.633Z,9.661454
2022-11-07T00:50:32.623Z,9.661418
2022-11-07T00:51:32.769Z,9.661461
2022-11-07T00:52:32.675Z,9.661401
2022-11-07T00:53:32.724Z,9.661354
2022-11-07T00:54:32.614Z,9.661438
2022-11-07T00:55:32.611Z,9.661460
2022-11-07T00:56:32.599Z,9.661434
2022-11-07T00:57:32.589Z,9.661422
2022-11-07T00:58:32.573Z,9.661313
2022-11-07T00:59:32.740Z,9.661388
2022-11-07T01:00:32.563Z,9.661464
2022-11-07T01:01:32.829Z,9.661560
2022-11-07T01:02:32.706Z,9.661572
2022-11-07T01:03:32.562Z,9.661618
2022-11-07T01:04:32.555Z,9.661494
2022-11-07T01:05:32.526Z,9.661334
2022-11-07T01:06:32.524Z,9.661312
2022-11-07T01:07:33.046Z,9.661523
2022-11-07T01:08:32.519Z,9.661382
2022-11-07T01:09:32.500Z,9.661512
2022-11-07T01:10:32.522Z,9.661691
2022-11-07T01:11:32.470Z,9.661453
2022-11-07T01:12:32.530Z,9.661545
2022-11-07T01:13:32.537Z,9.661630
2022-11-07T01:14:32.486Z,9.661722
2022-11-07T01:15:32.624Z,9.661802
2022-11-07T01:16:32.512Z,9.661454
2022-11-07T01:17:32.501Z,9.661506
2022-11-07T01:18:32.453Z,9.661383
2022-11-07T01:19:32.496Z,9.661287
2022-11-07T01:20:32.486Z,9.661358
2022-11-07T01:21:32.452Z,9.661434
2022-11-07T01:22:32.426Z,9.661488
2022-11-07T01:23:32.397Z,9.661694
2022-11-07T01:24:32.420Z,9.661407
2022-11-07T01:25:32.406Z,9.661674
2022-11-07T01:26:32.411Z,9.661677
2022-11-07T01:27:32.388Z,9.661612
2022-11-07T01:28:32.386Z,9.661510
2022-11-07T01:29:32.396Z,9.661423
2022-11-07T01:30:32.370Z,9.661583
2022-11-07T01:31:32.420Z,9.661772
2022-11-07T01:32:32.387Z,9.661864
2022-11-07T01:33:32.364Z,9.661725
2022-11-07T01:34:32.336Z,9.661683
2022-11-07T01:35:32.347Z,9.661443
2022-11-07T01:36:32.353Z,9.661467
2022-11-07T01:37:33.045Z,9.661441
2022-11-07T01:38:32.317Z,9.661482
2022-11-07T01:39:32.391Z,9.661472
2022-11-07T01:40:32.320Z,9.661501
2022-11-07T01:41:32.312Z,9.661631
2022-11-07T01:42:32.297Z,9.661602
2022-11-07T01:43:32.731Z,9.661449
2022-11-07T01:44:32.303Z,9.661613
2022-11-07T01:45:32.300Z,9.661484
2022-11-07T01:46:32.263Z,9.661499
2022-11-07T01:47:32.256Z,9.661481
2022-11-07T01:48:32.366Z,9.661410
2022-11-07T01:49:32.287Z,9.661440
2022-11-07T01:50:32.284Z,9.661475
2022-11-07T01:51:32.259Z,9.661506
2022-11-07T01:52:32.251Z,9.661474
2022-11-07T01:53:32.225Z,9.661470
2022-11-07T01:54:32.561Z,9.661457
2022-11-07T01:55:32.499Z,9.661429
2022-11-07T01:56:33.104Z,9.661464
2022-11-07T01:57:32.205Z,9.661386
2022-11-07T01:58:32.196Z,9.661415
2022-11-07T01:59:32.315Z,9.661466
2022-11-07T02:00:32.196Z,9.661503
2022-11-07T02:01:32.307Z,9.661503
2022-11-07T02:02:32.332Z,9.661551
2022-11-07T02:03:33.056Z,9.661432
2022-11-07T02:04:32.179Z,9.661494
2022-11-07T02:05:32.176Z,9.661521
2022-11-07T02:06:32.142Z,9.661479
2022-11-07T02:07:32.153Z,9.661485
2022-11-07T02:08:32.146Z,9.661495
2022-11-07T02:09:32.533Z,9.661419
2022-11-07T02:10:32.132Z,9.661396
2022-11-07T02:11:38.928Z,9.661396
2022-11-07T02:12:32.113Z,9.661363
2022-11-07T02:13:32.093Z,9.661469
2022-11-07T02:14:32.151Z,9.661316
2022-11-07T02:15:32.123Z,9.661320
2022-11-07T02:16:33.111Z,9.661306
2022-11-07T02:17:32.071Z,9.661498
2022-11-07T02:18:32.066Z,9.661623
2022-11-07T02:19:32.065Z,9.661419
2022-11-07T02:20:32.069Z,9.661478
2022-11-07T02:21:32.095Z,9.661564
2022-11-07T02:22:32.061Z,9.661472
2022-11-07T02:23:32.045Z,9.661294
2022-11-07T02:24:32.048Z,9.661352
2022-11-07T02:25:32.049Z,9.661445
2022-11-07T02:26:32.035Z,9.661515
2022-11-07T02:27:32.055Z,9.661422
2022-11-07T02:28:32.022Z,9.661426
2022-11-07T02:29:32.017Z,9.661725
2022-11-07T02:30:32.062Z,9.661727
2022-11-07T02:31:31.999Z,9.661453
2022-11-07T02:32:32.030Z,9.661606
2022-11-07T02:33:31.993Z,9.661633
2022-11-07T02:34:31.985Z,9.661510
2022-11-07T02:35:31.984Z,9.661557
2022-11-07T02:36:31.977Z,9.661576
2022-11-07T02:37:31.961Z,9.661454
2022-11-07T02:38:31.983Z,9.661489
2022-11-07T02:39:31.944Z,9.661411
2022-11-07T02:40:31.934Z,9.661433
2022-11-07T02:41:31.932Z,9.661468
2022-11-07T02:42:31.922Z,9.661458
2022-11-07T02:43:31.998Z,9.661495
2022-11-07T02:44:32.915Z,9.661535
2022-11-07T02:45:31.920Z,9.661638
2022-11-07T02:46:31.972Z,9.661504
2022-11-07T02:47:31.923Z,9.661467
2022-11-07T02:48:31.899Z,9.661449
2022-11-07T02:49:32.001Z,9.661442
2022-11-07T02:50:31.889Z,9.661464
2022-11-07T02:51:31.901Z,9.661435
2022-11-07T02:52:31.873Z,9.661389
2022-11-07T02:53:31.885Z,9.661418
2022-11-07T02:54:31.965Z,9.661434
2022-11-07T02:55:31.853Z,9.661392
2022-11-07T02:56:31.844Z,9.661398
2022-11-07T02:57:31.850Z,9.661470
2022-11-07T02:58:31.856Z,9.661532
2022-11-07T02:59:31.838Z,9.661561
2022-11-07T03:00:31.850Z,9.661657
2022-11-07T03:01:31.892Z,9.661617
2022-11-07T03:02:32.034Z,9.661550
2022-11-07T03:03:31.793Z,9.661478
2022-11-07T03:04:31.789Z,9.661499
2022-11-07T03:05:31.825Z,9.661520
2022-11-07T03:06:31.785Z,9.661561
2022-11-07T03:07:31.792Z,9.661504
2022-11-07T03:08:31.763Z,9.661459
2022-11-07T03:09:31.782Z,9.661470
2022-11-07T03:10:31.777Z,9.661344
2022-11-07T03:11:31.774Z,9.661395
2022-11-07T03:12:31.741Z,9.661489
2022-11-07T03:13:31.747Z,9.661434
2022-11-07T03:14:31.756Z,9.661613
2022-11-07T03:15:31.728Z,9.661534
2022-11-07T03:16:31.740Z,9.661633
2022-11-07T03:17:31.707Z,9.661697
2022-11-07T03:18:31.714Z,9.661471
2022-11-07T03:19:31.711Z,9.661562
2022-11-07T03:20:31.724Z,9.661476
2022-11-07T03:21:31.691Z,9.660860
2022-11-07T03:22:31.715Z,9.660623
2022-11-07T03:23:31.677Z,9.660788
2022-11-07T03:24:31.664Z,9.661059
2022-11-07T03:25:31.671Z,9.661537
2022-11-07T03:26:31.649Z,9.661552
2022-11-07T03:27:31.760Z,9.661814
2022-11-07T03:28:31.642Z,9.661898
2022-11-07T03:29:31.637Z,9.661625
2022-11-07T03:30:32.483Z,9.661386
2022-11-07T03:31:31.650Z,9.661676
2022-11-07T03:32:31.617Z,9.661799
2022-11-07T03:33:31.660Z,9.661701
2022-11-07T03:34:31.622Z,9.661820
2022-11-07T03:35:31.605Z,9.661935
2022-11-07T03:36:31.607Z,9.661888
2022-11-07T03:37:31.582Z,9.661852
2022-11-07T03:38:31.620Z,9.661606
2022-11-07T03:39:31.569Z,9.661799
2022-11-07T03:40:31.564Z,9.661495
2022-11-07T03:41:31.585Z,9.661459
2022-11-07T03:42:31.583Z,9.661427
2022-11-07T03:43:31.570Z,9.661468
2022-11-07T03:44:31.598Z,9.661558
2022-11-07T03:45:32.544Z,9.661486
2022-11-07T03:46:31.532Z,9.661413
2022-11-07T03:47:31.562Z,9.661579
2022-11-07T03:48:31.519Z,9.661423
2022-11-07T03:49:31.590Z,9.661319
2022-11-07T03:50:31.520Z,9.661527
2022-11-07T03:51:31.506Z,9.661370
2022-11-07T03:52:31.512Z,9.661401
2022-11-07T03:53:31.503Z,9.661553
2022-11-07T03:54:31.497Z,9.661409
2022-11-07T03:55:31.521Z,9.661488
2022-11-07T03:56:31.498Z,9.661513
2022-11-07T03:57:31.480Z,9.661497
2022-11-07T03:58:31.481Z,9.661489
2022-11-07T03:59:31.471Z,9.661486
2022-11-07T04:00:31.494Z,9.661386
2022-11-07T04:01:31.554Z,9.661418
2022-11-07T04:02:31.596Z,9.661700
2022-11-07T04:03:31.444Z,9.661551
2022-11-07T04:04:32.452Z,9.661542
2022-11-07T04:05:31.422Z,9.661491
2022-11-07T04:06:31.457Z,9.661459
2022-11-07T04:07:31.411Z,9.661476
2022-11-07T04:08:31.420Z,9.661469
2022-11-07T04:09:31.405Z,9.661473
2022-11-07T04:10:31.414Z,9.661519
2022-11-07T04:11:31.547Z,9.661532
2022-11-07T04:12:31.396Z,9.661492
2022-11-07T04:13:31.377Z,9.661528
2022-11-07T04:14:32.381Z,9.661572
2022-11-07T04:15:31.381Z,9.661424
2022-11-07T04:16:31.368Z,9.661474
2022-11-07T04:17:31.394Z,9.661399
2022-11-07T04:18:32.140Z,9.661370
2022-11-07T04:19:31.346Z,9.661411
2022-11-07T04:20:31.363Z,9.661574
2022-11-07T04:21:31.324Z,9.661536
2022-11-07T04:22:31.377Z,9.661558
2022-11-07T04:23:32.077Z,9.661539
2022-11-07T04:24:31.315Z,9.661475
2022-11-07T04:25:31.318Z,9.661537
2022-11-07T04:26:31.313Z,9.661490
2022-11-07T04:27:31.303Z,9.661433
2022-11-07T04:28:31.389Z,9.661543
2022-11-07T04:29:31.326Z,9.661466
2022-11-07T04:30:31.289Z,9.661623
2022-11-07T04:31:31.283Z,9.661613
2022-11-07T04:32:31.273Z,9.661446
2022-11-07T04:33:31.316Z,9.661648
2022-11-07T04:34:31.256Z,9.661583
2022-11-07T04:35:31.238Z,9.661399
2022-11-07T04:36:31.243Z,9.661505
2022-11-07T04:37:31.230Z,9.661569
2022-11-07T04:38:31.224Z,9.661548
2022-11-07T04:39:31.246Z,9.661557
2022-11-07T04:40:31.232Z,9.661451
2022-11-07T04:41:31.212Z,9.661504
2022-11-07T04:42:31.208Z,9.661508
2022-11-07T04:43:31.188Z,9.661395
2022-11-07T04:44:31.245Z,9.661439
2022-11-07T04:45:31.188Z,9.661444
2022-11-07T04:46:31.189Z,9.661512
2022-11-07T04:47:31.173Z,9.661589
2022-11-07T04:48:31.166Z,9.661758
2022-11-07T04:49:31.164Z,9.661657
2022-11-07T04:50:31.200Z,9.661509
2022-11-07T04:51:31.154Z,9.661557
2022-11-07T04:52:31.198Z,9.661465
2022-11-07T04:53:31.137Z,9.661454
2022-11-07T04:54:31.148Z,9.661538
2022-11-07T04:55:31.242Z,9.661416
2022-11-07T04:56:34.442Z,9.661743
2022-11-07T04:57:32.119Z,9.661639
2022-11-07T04:58:31.115Z,9.661636
2022-11-07T04:59:31.106Z,9.661716
2022-11-07T05:00:31.103Z,9.661608
2022-11-07T05:01:31.167Z,9.661542
2022-11-07T05:02:31.153Z,9.661623
2022-11-07T05:03:31.076Z,9.661481
2022-11-07T05:04:31.073Z,9.661592
2022-11-07T05:05:31.066Z,9.661476
2022-11-07T05:06:31.099Z,9.661587
2022-11-07T05:07:31.061Z,9.661542
2022-11-07T05:08:31.040Z,9.661616
2022-11-07T05:09:31.029Z,9.661716
2022-11-07T05:10:31.038Z,9.661790
2022-11-07T05:11:31.039Z,9.661569
2022-11-07T05:12:31.112Z,9.661695
2022-11-07T05:13:30.997Z,9.661553
2022-11-07T05:14:31.031Z,9.661644
2022-11-07T05:15:31.019Z,9.661593
2022-11-07T05:16:31.013Z,9.661635
2022-11-07T05:17:31.007Z,9.661641
2022-11-07T05:18:30.980Z,9.661636
2022-11-07T05:19:30.996Z,9.661697
2022-11-07T05:20:30.992Z,9.661782
2022-11-07T05:21:30.979Z,9.661821
2022-11-07T05:22:30.976Z,9.661609
2022-11-07T05:23:31.081Z,9.661498
2022-11-07T05:24:30.947Z,9.661428
2022-11-07T05:25:30.936Z,9.661368
2022-11-07T05:26:30.975Z,9.661403
2022-11-07T05:27:30.963Z,9.661491
2022-11-07T05:28:38.309Z,9.661603
2022-11-07T05:29:32.915Z,9.661578
2022-11-07T05:30:30.907Z,9.661477
2022-11-07T05:31:30.888Z,9.661545
2022-11-07T05:32:30.925Z,9.661628
2022-11-07T05:33:30.893Z,9.661605
2022-11-07T05:34:30.995Z,9.661646
2022-11-07T05:35:30.880Z,9.661565
2022-11-07T05:36:30.879Z,9.661555
2022-11-07T05:37:30.856Z,9.661552
2022-11-07T05:38:30.856Z,9.661582
2022-11-07T05:39:30.902Z,9.661550
2022-11-07T05:40:30.871Z,9.661518
2022-11-07T05:41:30.860Z,9.661536
2022-11-07T05:42:30.848Z,9.661688
2022-11-07T05:43:30.832Z,9.661682
2022-11-07T05:44:30.824Z,9.661612
2022-11-07T05:45:30.854Z,9.661562
2022-11-07T05:46:30.808Z,9.661598
2022-11-07T05:47:30.815Z,9.661705
2022-11-07T05:48:31.093Z,9.661699
2022-11-07T05:49:30.846Z,9.661659
2022-11-07T05:50:31.024Z,9.661722
2022-11-07T05:51:30.817Z,9.661806
2022-11-07T05:52:30.816Z,9.661671
2022-11-07T05:53:30.841Z,9.661617
2022-11-07T05:54:30.766Z,9.661596
2022-11-07T05:55:30.777Z,9.661562
2022-11-07T05:56:30.779Z,9.661597
2022-11-07T05:57:30.770Z,9.661654
2022-11-07T05:58:30.889Z,9.661657
2022-11-07T05:59:30.737Z,9.661706
2022-11-07T06:00:30.744Z,9.661695
2022-11-07T06:01:30.864Z,9.661716
2022-11-07T06:02:30.797Z,9.661673
2022-11-07T06:03:30.708Z,9.661631
2022-11-07T06:04:30.716Z,9.661617
2022-11-07T06:05:30.706Z,9.661625
2022-11-07T06:06:30.697Z,9.661633
2022-11-07T06:07:30.799Z,9.661606
2022-11-07T06:08:30.822Z,9.661581
2022-11-07T06:09:30.687Z,9.661558
2022-11-07T06:10:30.648Z,9.661530
2022-11-07T06:11:30.711Z,9.661583
2022-11-07T06:12:30.682Z,9.661570
2022-11-07T06:13:30.672Z,9.661570
2022-11-07T06:14:30.649Z,9.661613
2022-11-07T06:15:30.644Z,9.661645
2022-11-07T06:16:30.630Z,9.661694
2022-11-07T06:17:30.653Z,9.661671
2022-11-07T06:18:30.742Z,9.661724
2022-11-07T06:19:30.635Z,9.661694
2022-11-07T06:20:30.607Z,9.661650
2022-11-07T06:21:30.614Z,9.661626
2022-11-07T06:22:30.594Z,9.661676
2022-11-07T06:23:30.708Z,9.661501
2022-11-07T06:24:30.582Z,9.661581
2022-11-07T06:25:30.584Z,9.661590
2022-11-07T06:26:30.575Z,9.661684
2022-11-07T06:27:30.564Z,9.661679
2022-11-07T06:28:30.550Z,9.661666
2022-11-07T06:29:30.597Z,9.661662
2022-11-07T06:30:30.695Z,9.661570
2022-11-07T06:31:30.556Z,9.661647
2022-11-07T06:32:30.541Z,9.661612
2022-11-07T06:33:30.530Z,9.661498
2022-11-07T06:34:30.563Z,9.661537
2022-11-07T06:35:30.515Z,9.661787
2022-11-07T06:36:30.526Z,9.661580
2022-11-07T06:37:30.528Z,9.661510
2022-11-07T06:38:30.507Z,9.661926
2022-11-07T06:39:30.509Z,9.661674
2022-11-07T06:40:30.610Z,9.661740
2022-11-07T06:41:30.493Z,9.661790
2022-11-07T06:42:30.473Z,9.661744
2022-11-07T06:43:33.699Z,9.661520
2022-11-07T06:44:31.069Z,9.661390
2022-11-07T06:45:30.476Z,9.661520
2022-11-07T06:46:30.460Z,9.661515
2022-11-07T06:47:30.456Z,9.661826
2022-11-07T06:48:30.440Z,9.661517
2022-11-07T06:49:30.425Z,9.661610
2022-11-07T06:50:30.426Z,9.661669
2022-11-07T06:51:30.539Z,9.661685
2022-11-07T06:52:30.405Z,9.661651
2022-11-07T06:53:30.404Z,9.661613
2022-11-07T06:54:30.416Z,9.661576
2022-11-07T06:55:30.418Z,9.661568
2022-11-07T06:56:30.489Z,9.661633
2022-11-07T06:57:30.378Z,9.661646
2022-11-07T06:58:30.385Z,9.661592
2022-11-07T06:59:30.381Z,9.661597
2022-11-07T07:00:30.449Z,9.661608
2022-11-07T07:01:30.553Z,9.661638
2022-11-07T07:02:56.875Z,9.661570
2022-11-07T07:03:32.348Z,9.661501
2022-11-07T07:04:30.367Z,9.661576
2022-11-07T07:05:30.335Z,9.661582
2022-11-07T07:06:30.343Z,9.661484
2022-11-07T07:07:30.461Z,9.661613
2022-11-07T07:08:30.313Z,9.661632
2022-11-07T07:09:30.308Z,9.661623
2022-11-07T07:10:30.391Z,9.661543
2022-11-07T07:11:30.298Z,9.661519
2022-11-07T07:12:30.297Z,9.661549
2022-11-07T07:13:30.329Z,9.661531
2022-11-07T07:14:30.300Z,9.661565
2022-11-07T07:15:38.550Z,9.661585
2022-11-07T07:16:30.283Z,9.661596
2022-11-07T07:17:30.261Z,9.661609
2022-11-07T07:18:30.365Z,9.661628
2022-11-07T07:19:30.246Z,9.661654
2022-11-07T07:20:30.330Z,9.661559
2022-11-07T07:21:30.255Z,9.661559
2022-11-07T07:22:30.243Z,9.661474
2022-11-07T07:23:30.232Z,9.661530
2022-11-07T07:24:30.254Z,9.661610
2022-11-07T07:25:30.207Z,9.661620
2022-11-07T07:26:30.226Z,9.661581
2022-11-07T07:27:30.189Z,9.661604
2022-11-07T07:28:30.190Z,9.661564
2022-11-07T07:29:30.220Z,9.661609
2022-11-07T07:30:30.288Z,9.661593
2022-11-07T07:31:30.184Z,9.661590
2022-11-07T07:32:30.219Z,9.661479
2022-11-07T07:33:30.167Z,9.661476
2022-11-07T07:34:30.258Z,9.661633
2022-11-07T07:35:30.191Z,9.661618
2022-11-07T07:36:30.142Z,9.661593
2022-11-07T07:37:30.151Z,9.661564
2022-11-07T07:38:30.538Z,9.661643
2022-11-07T07:39:30.143Z,9.661628
2022-11-07T07:40:30.136Z,9.661562
2022-11-07T07:41:30.130Z,9.661588
2022-11-07T07:42:30.127Z,9.661563
2022-11-07T07:43:30.121Z,9.661540
2022-11-07T07:44:30.092Z,9.661605
2022-11-07T07:45:30.101Z,9.661687
2022-11-07T07:46:30.103Z,9.661634
2022-11-07T07:47:30.085Z,9.661534
2022-11-07T07:48:30.073Z,9.661564
2022-11-07T07:49:30.071Z,9.661519
2022-11-07T07:50:30.152Z,9.661620
2022-11-07T07:51:30.095Z,9.661659
2022-11-07T07:52:30.038Z,9.661530
2022-11-07T07:53:30.067Z,9.661547
2022-11-07T07:54:30.053Z,9.661566
2022-11-07T07:55:30.044Z,9.661592
2022-11-07T07:56:30.030Z,9.661627
2022-11-07T07:57:30.053Z,9.661545
2022-11-07T07:58:30.004Z,9.661557
2022-11-07T07:59:30.005Z,9.661639
2022-11-07T08:00:29.989Z,9.661660
2022-11-07T08:01:30.096Z,9.661690
2022-11-07T08:02:30.070Z,9.661730
2022-11-07T08:03:50.578Z,9.662344
2022-11-07T08:04:31.966Z,9.662171
2022-11-07T08:05:29.980Z,9.661871
2022-11-07T08:06:30.061Z,9.661643
2022-11-07T08:07:29.964Z,9.661534
2022-11-07T08:08:33.925Z,9.661534
2022-11-07T08:09:30.957Z,9.661557
2022-11-07T08:10:45.451Z,9.661648
2022-11-07T08:11:31.935Z,9.661608
2022-11-07T08:13:02.572Z,9.661717
2022-11-07T08:13:29.920Z,9.661878
2022-11-07T08:14:30.929Z,9.661945
2022-11-07T08:15:29.915Z,9.662051
2022-11-07T08:16:29.881Z,9.661878
2022-11-07T08:17:29.893Z,9.661855
2022-11-07T08:18:29.881Z,9.661954
2022-11-07T08:19:29.914Z,9.661964
2022-11-07T08:20:29.896Z,9.661774
2022-11-07T08:21:29.859Z,9.661653
2022-11-07T08:22:29.952Z,9.661553
2022-11-07T08:23:29.874Z,9.661558
2022-11-07T08:24:29.873Z,9.661602
2022-11-07T08:25:29.854Z,9.661545
2022-11-07T08:26:29.852Z,9.661636
2022-11-07T08:27:29.929Z,9.661713
2022-11-07T08:28:29.828Z,9.661739
2022-11-07T08:29:29.829Z,9.661730
2022-11-07T08:30:29.856Z,9.661797
2022-11-07T08:31:29.866Z,9.661798
2022-11-07T08:32:29.815Z,9.661738
2022-11-07T08:33:29.838Z,9.661728
2022-11-07T08:34:30.024Z,9.661774
2022-11-07T08:35:29.827Z,9.661823
2022-11-07T08:36:30.675Z,9.661709
2022-11-07T08:37:30.807Z,9.661699
2022-11-07T08:38:29.777Z,9.661656
2022-11-07T08:39:29.770Z,9.661584
2022-11-07T08:40:29.747Z,9.661604
2022-11-07T08:41:29.903Z,9.661515
2022-11-07T08:42:29.760Z,9.661626
2022-11-07T08:43:29.739Z,9.661656
2022-11-07T08:44:29.791Z,9.661592
2022-11-07T08:45:29.723Z,9.661476
2022-11-07T08:46:29.743Z,9.661567
2022-11-07T08:47:29.756Z,9.661567
2022-11-07T08:48:29.701Z,9.661585
2022-11-07T08:49:29.704Z,9.661491
2022-11-07T08:50:29.699Z,9.661495
2022-11-07T08:51:29.683Z,9.661387
2022-11-07T08:52:29.689Z,9.661664
2022-11-07T08:53:29.679Z,9.661670
2022-11-07T08:54:29.700Z,9.661655
2022-11-07T08:55:29.672Z,9.661520
2022-11-07T08:56:29.658Z,9.661731
2022-11-07T08:57:30.025Z,9.661661
2022-11-07T08:58:30.393Z,9.661619
2022-11-07T08:59:30.637Z,9.661695
2022-11-07T09:00:29.627Z,9.661680
2022-11-07T09:01:29.767Z,9.661531
2022-11-07T09:03:53.038Z,9.661683
2022-11-07T09:04:31.723Z,9.661657
2022-11-07T09:05:29.591Z,9.661634
2022-11-07T09:06:29.602Z,9.661860
2022-11-07T09:07:29.635Z,9.661957
2022-11-07T09:08:29.603Z,9.661804
2022-11-07T09:09:29.586Z,9.661684
2022-11-07T09:10:29.589Z,9.661645
2022-11-07T09:11:29.559Z,9.661782
2022-11-07T09:12:29.546Z,9.661508
2022-11-07T09:13:29.565Z,9.661404
2022-11-07T09:14:29.570Z,9.661478
2022-11-07T09:15:29.552Z,9.661792
2022-11-07T09:16:29.597Z,9.661690
2022-11-07T09:17:29.551Z,9.661633
2022-11-07T09:18:29.549Z,9.661712
2022-11-07T09:19:30.511Z,9.661768
2022-11-07T09:20:29.522Z,9.661630
2022-11-07T09:21:29.518Z,9.661761
2022-11-07T09:22:30.032Z,9.661629
2022-11-07T09:23:29.509Z,9.661588
2022-11-07T09:24:29.592Z,9.661594
2022-11-07T09:25:29.482Z,9.661608
2022-11-07T09:26:29.484Z,9.661659
2022-11-07T09:27:29.477Z,9.661716
2022-11-07T09:28:30.175Z,9.661673
2022-11-07T09:29:29.614Z,9.661658
2022-11-07T09:30:29.468Z,9.661793
2022-11-07T09:31:29.691Z,9.661782
2022-11-07T09:32:45.803Z,9.661773
2022-11-07T09:33:31.457Z,9.661781
2022-11-07T09:34:29.420Z,9.661701
2022-11-07T09:35:29.553Z,9.661584
2022-11-07T09:36:29.409Z,9.661502
2022-11-07T09:37:29.410Z,9.661551
2022-11-07T09:38:29.418Z,9.661506
2022-11-07T09:39:29.400Z,9.661613
2022-11-07T09:40:29.405Z,9.661537
2022-11-07T09:41:29.404Z,9.661543
2022-11-07T09:42:30.099Z,9.661350
2022-11-07T09:43:29.397Z,9.661505
2022-11-07T09:44:32.401Z,9.661491
2022-11-07T09:45:30.093Z,9.661502
2022-11-07T09:46:29.483Z,9.661468
2022-11-07T09:47:29.383Z,9.661499
2022-11-07T09:48:29.325Z,9.661445
2022-11-07T09:49:29.346Z,9.661349
2022-11-07T09:50:29.343Z,9.661371
2022-11-07T09:51:29.601Z,9.661445
2022-11-07T09:52:29.308Z,9.661517
2022-11-07T09:53:29.335Z,9.661474
2022-11-07T09:54:29.317Z,9.661448
2022-11-07T09:55:29.320Z,9.661462
2022-11-07T09:56:29.297Z,9.661507
2022-11-07T09:57:29.399Z,9.661493
2022-11-07T09:58:29.304Z,9.661444
2022-11-07T09:59:29.302Z,9.661480
2022-11-07T10:00:29.269Z,9.661507
2022-11-07T10:01:29.391Z,9.661471
2022-11-07T10:02:29.461Z,9.661476
2022-11-07T10:03:29.414Z,9.661478
2022-11-07T10:04:29.245Z,9.661506
2022-11-07T10:05:29.255Z,9.661621
2022-11-07T10:06:29.242Z,9.661478
2022-11-07T10:07:29.230Z,9.661484
2022-11-07T10:08:29.269Z,9.661531
2022-11-07T10:09:29.213Z,9.661508
2022-11-07T10:10:29.216Z,9.661453
2022-11-07T10:11:29.198Z,9.661552
2022-11-07T10:12:29.231Z,9.661578
2022-11-07T10:13:29.239Z,9.661471
2022-11-07T10:14:29.186Z,9.661463
2022-11-07T10:15:29.179Z,9.661516
2022-11-07T10:16:29.203Z,9.661616
2022-11-07T10:17:29.174Z,9.661593
2022-11-07T10:18:29.163Z,9.661546
2022-11-07T10:19:29.167Z,9.661662
2022-11-07T10:20:29.141Z,9.661632
2022-11-07T10:21:38.417Z,9.661579
2022-11-07T10:22:31.146Z,9.661596
2022-11-07T10:23:29.605Z,9.661500
2022-11-07T10:24:29.164Z,9.661546
2022-11-07T10:25:29.113Z,9.661618
2022-11-07T10:26:29.109Z,9.661649
2022-11-07T10:27:29.115Z,9.661612
2022-11-07T10:28:29.089Z,9.661633
2022-11-07T10:29:29.107Z,9.661549
2022-11-07T10:30:29.208Z,9.661558
2022-11-07T10:31:29.068Z,9.661567
2022-11-07T10:32:29.061Z,9.661618
2022-11-07T10:33:29.070Z,9.661517
2022-11-07T10:34:29.067Z,9.661493
2022-11-07T10:35:29.180Z,9.661467
2022-11-07T10:36:29.041Z,9.661411
2022-11-07T10:37:29.048Z,9.661504
2022-11-07T10:38:29.047Z,9.661528
2022-11-07T10:39:29.008Z,9.661326
2022-11-07T10:40:29.015Z,9.661450
2022-11-07T10:41:29.042Z,9.661576
2022-11-07T10:42:29.023Z,9.661655
2022-11-07T10:43:29.698Z,9.661532
2022-11-07T10:44:29.007Z,9.661325
2022-11-07T10:45:29.710Z,9.661627
2022-11-07T10:46:29.109Z,9.661180
2022-11-07T10:47:28.988Z,9.661516
2022-11-07T10:48:28.975Z,9.661491
2022-11-07T10:49:28.967Z,9.661457
2022-11-07T10:50:28.963Z,9.661514
2022-11-07T10:51:28.962Z,9.661560
2022-11-07T10:52:29.077Z,9.661508
2022-11-07T10:53:28.949Z,9.661552
2022-11-07T10:54:28.940Z,9.661576
2022-11-07T10:55:28.935Z,9.661451
2022-11-07T10:56:28.927Z,9.661411
2022-11-07T10:57:28.953Z,9.661555
2022-11-07T10:58:28.901Z,9.661561
2022-11-07T10:59:34.557Z,9.661557
2022-11-07T11:00:30.920Z,9.661560
2022-11-07T11:01:29.047Z,9.661626
2022-11-07T11:02:28.902Z,9.661513
2022-11-07T11:03:41.919Z,9.661618
2022-11-07T11:04:30.873Z,9.661597
2022-11-07T11:05:28.877Z,9.661592
2022-11-07T11:06:28.859Z,9.661595
2022-11-07T11:07:28.964Z,9.661740
2022-11-07T11:08:28.880Z,9.661665
2022-11-07T11:09:28.864Z,9.661587
2022-11-07T11:10:28.861Z,9.661410
2022-11-07T11:11:28.844Z,9.661542
2022-11-07T11:12:28.835Z,9.661716
2022-11-07T11:13:28.825Z,9.661807
2022-11-07T11:14:29.225Z,9.661635
2022-11-07T11:15:34.346Z,9.661612
2022-11-07T11:16:29.825Z,9.661673
2022-11-07T11:17:28.880Z,9.661822
2022-11-07T11:18:28.787Z,9.661792
2022-11-07T11:19:28.815Z,9.661839
2022-11-07T11:20:28.790Z,9.661660
2022-11-07T11:21:28.797Z,9.661679
2022-11-07T11:22:29.157Z,9.661565
2022-11-07T11:23:28.782Z,9.661636
2022-11-07T11:24:28.769Z,9.661624
2022-11-07T11:25:29.733Z,9.661579
2022-11-07T11:26:28.747Z,9.661439
2022-11-07T11:27:28.742Z,9.661340
2022-11-07T11:28:28.738Z,9.661457
2022-11-07T11:29:28.737Z,9.661609
2022-11-07T11:30:28.752Z,9.661508
2022-11-07T11:31:28.730Z,9.661439
2022-11-07T11:32:28.728Z,9.661655
2022-11-07T11:33:28.713Z,9.661642
2022-11-07T11:34:28.713Z,9.661570
2022-11-07T11:35:28.704Z,9.661505
2022-11-07T11:36:28.717Z,9.661234
2022-11-07T11:37:28.702Z,9.661409
2022-11-07T11:38:28.712Z,9.661346
2022-11-07T11:39:28.688Z,9.661354
2022-11-07T11:40:28.670Z,9.661427
2022-11-07T11:41:28.701Z,9.661443
2022-11-07T11:42:28.669Z,9.661437
2022-11-07T11:43:28.673Z,9.661428
2022-11-07T11:44:28.664Z,9.661348
2022-11-07T11:45:28.653Z,9.661293